createdAt,value
2023-03-30T00:03:55.959Z,3.00
2023-03-30T00:08:59.654Z,3.08
2023-03-30T00:14:01.728Z,2.90
2023-03-30T00:19:03.425Z,2.70
2023-03-30T00:24:05.136Z,4.10
2023-03-30T00:29:06.764Z,4.45
2023-03-30T00:34:09.622Z,2.70
2023-03-30T00:39:11.267Z,2.33
2023-03-30T00:44:50.973Z,3.00
2023-03-30T00:49:53.344Z,2.38
2023-03-30T00:54:57.405Z,4.13
2023-03-30T00:59:59.155Z,4.85
2023-03-30T01:05:04.018Z,3.20
2023-03-30T01:10:08.352Z,2.90
2023-03-30T01:15:10.970Z,3.42
2023-03-30T01:20:25.643Z,2.22
2023-03-30T01:25:46.070Z,2.45
2023-03-30T01:30:50.710Z,4.57
2023-03-30T01:36:13.895Z,4.38
2023-03-30T01:41:31.260Z,5.10
2023-03-30T01:46:40.349Z,6.32
2023-03-30T01:52:05.622Z,6.53
2023-03-30T01:57:22.270Z,6.60
2023-03-30T02:02:29.269Z,5.82
2023-03-30T02:07:33.459Z,7.30
2023-03-30T02:12:36.407Z,7.63
2023-03-30T02:17:38.354Z,7.97
2023-03-30T02:22:40.784Z,7.50
2023-03-30T02:27:42.830Z,7.70
2023-03-30T02:32:48.521Z,8.13
2023-03-30T02:38:02.284Z,8.63
2023-03-30T02:43:37.922Z,9.13
2023-03-30T02:49:26.901Z,8.68
2023-03-30T02:54:55.111Z,8.45
2023-03-30T03:00:39.257Z,8.70
2023-03-30T03:05:44.870Z,8.23
2023-03-30T03:10:49.615Z,8.35
2023-03-30T03:15:56.051Z,7.60
2023-03-30T03:20:59.308Z,8.98
2023-03-30T03:26:01.126Z,9.40
2023-03-30T03:31:06.557Z,9.05
2023-03-30T03:36:12.257Z,9.80
2023-03-30T03:41:20.626Z,9.30
2023-03-30T03:46:22.486Z,9.88
2023-03-30T03:51:24.197Z,9.02
2023-03-30T03:56:26.840Z,10.43
2023-03-30T04:01:31.624Z,10.73
2023-03-30T04:06:33.270Z,10.90
2023-03-30T04:11:35.013Z,12.27
2023-03-30T04:16:58.063Z,11.73
2023-03-30T04:22:41.728Z,11.25
2023-03-30T04:28:15.850Z,11.10
2023-03-30T04:33:35.074Z,9.57
2023-03-30T04:38:58.802Z,10.55
2023-03-30T04:44:22.125Z,13.82
2023-03-30T04:49:42.242Z,14.05
2023-03-30T04:55:12.887Z,13.27
2023-03-30T05:00:42.503Z,13.32
2023-03-30T05:05:57.732Z,14.15
2023-03-30T05:11:18.185Z,14.57
2023-03-30T05:16:25.773Z,14.30
2023-03-30T05:21:42.488Z,14.00
2023-03-30T05:27:02.926Z,14.45
2023-03-30T05:32:14.265Z,14.30
2023-03-30T05:37:28.125Z,16.02
2023-03-30T05:42:36.676Z,16.73
2023-03-30T05:47:45.978Z,19.70
2023-03-30T05:52:59.698Z,19.67
2023-03-30T05:58:18.801Z,18.52
2023-03-30T06:03:39.111Z,19.67
2023-03-30T06:08:42.378Z,18.50
2023-03-30T06:13:50.521Z,18.75
2023-03-30T06:18:52.216Z,18.80
2023-03-30T06:23:53.859Z,18.70
2023-03-30T06:28:58.449Z,16.73
2023-03-30T06:34:01.096Z,8.73
2023-03-30T06:39:06.486Z,3.35
2023-03-30T06:44:14.805Z,2.83
2023-03-30T06:49:16.896Z,3.55
2023-03-30T06:54:20.416Z,2.50
2023-03-30T06:59:29.486Z,3.45
2023-03-30T07:05:01.188Z,3.08
2023-03-30T07:10:22.327Z,3.35
2023-03-30T07:15:24.889Z,3.17
2023-03-30T07:20:27.509Z,2.97
2023-03-30T07:25:42.055Z,1.83
2023-03-30T07:31:24.632Z,2.53
2023-03-30T07:36:27.011Z,2.28
2023-03-30T07:41:29.531Z,3.10
2023-03-30T07:46:34.272Z,2.95
2023-03-30T07:51:36.564Z,3.20
2023-03-30T07:56:52.787Z,3.25
2023-03-30T08:01:56.228Z,2.17
2023-03-30T08:07:20.165Z,2.53
2023-03-30T08:12:28.179Z,1.92
2023-03-30T08:17:30.043Z,2.92
2023-03-30T08:22:31.872Z,2.70
2023-03-30T08:27:34.214Z,2.83
2023-03-30T08:32:35.844Z,2.50
2023-03-30T08:37:37.440Z,3.10
2023-03-30T08:42:57.207Z,2.55
2023-03-30T08:47:59.921Z,3.00
2023-03-30T08:53:04.697Z,2.88
2023-03-30T08:58:27.207Z,2.72
2023-03-30T09:03:50.670Z,4.00
2023-03-30T09:08:52.694Z,2.63
2023-03-30T09:13:56.181Z,3.30
2023-03-30T09:18:59.242Z,2.88
2023-03-30T09:24:12.152Z,3.03
2023-03-30T09:29:30.715Z,3.10
2023-03-30T09:34:54.409Z,2.15
2023-03-30T09:39:59.044Z,4.00
2023-03-30T09:45:21.282Z,2.88
2023-03-30T09:50:26.896Z,3.53
2023-03-30T09:55:31.528Z,2.85
2023-03-30T10:00:34.203Z,4.07
2023-03-30T10:05:37.991Z,3.80
2023-03-30T10:10:41.106Z,4.20
2023-03-30T10:15:46.237Z,4.22
2023-03-30T10:21:00.538Z,4.28
2023-03-30T10:26:04.467Z,3.45
2023-03-30T10:31:16.221Z,3.50
2023-03-30T10:36:19.486Z,3.03
2023-03-30T10:41:23.626Z,2.60
2023-03-30T10:46:25.639Z,2.90
2023-03-30T10:51:42.462Z,2.17
2023-03-30T10:56:46.392Z,2.80
2023-03-30T11:02:29.418Z,2.38
2023-03-30T11:07:40.119Z,2.10
2023-03-30T11:12:46.602Z,1.63
2023-03-30T11:17:57.402Z,1.42
2023-03-30T11:23:21.810Z,1.58
2023-03-30T11:28:47.980Z,2.00
2023-03-30T11:34:08.677Z,2.03
2023-03-30T11:39:31.124Z,1.40
2023-03-30T11:44:33.898Z,1.85
2023-03-30T11:49:53.654Z,1.88
2023-03-30T11:55:23.949Z,1.42
2023-03-30T12:00:41.099Z,2.15
2023-03-30T12:05:46.146Z,1.52
2023-03-30T12:10:55.247Z,1.88
2023-03-30T12:16:12.234Z,2.75
2023-03-30T12:21:32.805Z,2.92
2023-03-30T12:26:36.262Z,2.50
2023-03-30T12:31:53.312Z,2.92
2023-03-30T12:37:04.361Z,3.25
2023-03-30T12:42:10.191Z,2.97
2023-03-30T12:47:50.645Z,3.00
2023-03-30T12:53:19.521Z,3.38
2023-03-30T12:58:43.783Z,3.20
2023-03-30T13:03:54.517Z,3.40
2023-03-30T13:09:15.499Z,2.72
2023-03-30T13:14:39.683Z,2.90
2023-03-30T13:19:45.543Z,3.05
2023-03-30T13:24:54.397Z,2.92
2023-03-30T13:29:59.147Z,3.42
2023-03-30T13:35:32.544Z,2.55
2023-03-30T13:41:01.579Z,2.97
2023-03-30T13:46:29.632Z,2.83
2023-03-30T13:51:32.763Z,2.70
2023-03-30T13:56:39.317Z,2.80
2023-03-30T14:01:45.386Z,2.85
2023-03-30T14:06:51.377Z,2.58
2023-03-30T14:11:58.616Z,2.60
2023-03-30T14:17:02.434Z,2.85
2023-03-30T14:22:16.870Z,2.60
2023-03-30T14:27:18.470Z,2.20
2023-03-30T14:32:23.493Z,2.30
2023-03-30T14:37:26.336Z,2.13
2023-03-30T14:42:34.121Z,1.98
2023-03-30T14:47:37.748Z,3.00
2023-03-30T14:52:46.237Z,1.83
2023-03-30T14:57:49.273Z,2.35
2023-03-30T15:02:56.884Z,2.15
2023-03-30T15:07:58.863Z,2.40
2023-03-30T15:13:02.688Z,2.00
2023-03-30T15:18:05.218Z,2.45
2023-03-30T15:23:06.941Z,1.80
2023-03-30T15:28:19.098Z,1.67
2023-03-30T15:33:35.022Z,2.10
2023-03-30T15:38:52.974Z,1.90
2023-03-30T15:43:56.307Z,2.05
2023-03-30T15:48:58.099Z,2.30
2023-03-30T15:54:01.914Z,1.30
2023-03-30T15:59:04.372Z,1.50
2023-03-30T16:04:07.493Z,1.80
2023-03-30T16:09:09.376Z,1.75
2023-03-30T16:14:14.138Z,1.15
2023-03-30T16:19:18.639Z,1.25
2023-03-30T16:24:20.345Z,1.58
2023-03-30T16:29:24.172Z,1.85
2023-03-30T16:34:26.394Z,1.75
2023-03-30T16:39:29.755Z,1.30
2023-03-30T16:44:31.543Z,1.27
2023-03-30T16:49:33.227Z,0.95
2023-03-30T16:54:34.867Z,1.02
2023-03-30T16:59:36.473Z,1.23
2023-03-30T17:04:38.116Z,1.00
2023-03-30T17:09:39.726Z,0.85
2023-03-30T17:14:43.026Z,1.17
2023-03-30T17:19:44.753Z,1.20
2023-03-30T17:24:46.458Z,1.08
2023-03-30T17:29:48.091Z,1.15
2023-03-30T17:34:49.689Z,0.98
2023-03-30T17:39:51.286Z,1.10
2023-03-30T17:44:52.900Z,0.80
2023-03-30T17:49:54.530Z,1.10
2023-03-30T17:54:57.204Z,1.13
2023-03-30T17:59:58.797Z,1.20
2023-03-30T18:05:00.417Z,1.00
2023-03-30T18:10:02.553Z,1.33
2023-03-30T18:15:04.436Z,1.20
2023-03-30T18:20:14.198Z,1.00
2023-03-30T18:25:25.883Z,1.27
2023-03-30T18:30:37.715Z,1.20
2023-03-30T18:35:39.610Z,1.13
2023-03-30T18:40:50.147Z,1.15
2023-03-30T18:45:52.442Z,1.15
2023-03-30T18:50:55.108Z,1.35
2023-03-30T18:56:00.396Z,1.20
2023-03-30T19:01:02.550Z,1.40
2023-03-30T19:06:04.503Z,1.70
2023-03-30T19:11:07.546Z,1.42
2023-03-30T19:16:09.267Z,1.40
2023-03-30T19:21:15.436Z,1.40
2023-03-30T19:26:17.050Z,1.65
2023-03-30T19:31:18.949Z,1.50
2023-03-30T19:36:23.301Z,1.33
2023-03-30T19:41:26.851Z,1.40
2023-03-30T19:46:28.559Z,1.10
2023-03-30T19:51:30.374Z,1.55
2023-03-30T19:56:32.183Z,1.10
2023-03-30T20:01:33.834Z,2.08
2023-03-30T20:06:35.987Z,0.90
2023-03-30T20:11:37.655Z,1.38
2023-03-30T20:16:39.743Z,1.30
2023-03-30T20:21:41.732Z,1.27
2023-03-30T20:26:43.373Z,1.50
2023-03-30T20:31:46.308Z,1.35
2023-03-30T20:36:49.936Z,1.85
2023-03-30T20:41:54.034Z,1.40
2023-03-30T20:46:59.938Z,1.70
2023-03-30T20:52:01.995Z,1.63
2023-03-30T20:57:04.452Z,2.03
2023-03-30T21:02:06.404Z,1.58
2023-03-30T21:07:10.277Z,1.60
2023-03-30T21:12:11.973Z,1.40
2023-03-30T21:17:13.676Z,1.77
2023-03-30T21:22:18.060Z,1.70
2023-03-30T21:27:19.668Z,1.63
2023-03-30T21:32:21.358Z,1.65
2023-03-30T21:37:22.980Z,1.85
2023-03-30T21:42:24.646Z,1.70
2023-03-30T21:47:26.261Z,1.60
2023-03-30T21:52:28.925Z,1.35
2023-03-30T21:57:30.617Z,1.85
2023-03-30T22:02:32.286Z,1.50
2023-03-30T22:07:33.915Z,1.73
2023-03-30T22:12:35.562Z,1.20
2023-03-30T22:17:41.836Z,1.63
2023-03-30T22:22:44.123Z,1.20
2023-03-30T22:27:45.917Z,1.58
2023-03-30T22:32:47.601Z,1.95
2023-03-30T22:37:49.264Z,1.30
2023-03-30T22:42:50.866Z,1.73
2023-03-30T22:47:52.561Z,1.73
2023-03-30T22:52:56.587Z,1.80
2023-03-30T22:57:58.260Z,1.35
2023-03-30T23:03:00.024Z,1.38
2023-03-30T23:08:01.756Z,1.58
2023-03-30T23:13:04.614Z,1.50
2023-03-30T23:18:06.250Z,1.50
2023-03-30T23:23:07.872Z,1.70
2023-03-30T23:28:09.508Z,2.35
2023-03-30T23:33:12.150Z,1.92
2023-03-30T23:38:13.760Z,2.17
2023-03-30T23:43:15.522Z,1.90
2023-03-30T23:48:17.371Z,2.20
2023-03-30T23:53:19.880Z,1.50
2023-03-30T23:58:22.252Z,2.10
